Time;durP1;ratioP1;P1;durP2;ratioP2;P2;SDS_P1;SDS_P2;PMS_P1;PMS_P2;Temp;Humidity;BMP_temperature;BMP_pressure;BME280_temperature;BME280_humidity;BME280_pressure;Samples;Min_cycle;Max_cycle;Signal;HPM_P1;HPM_P2
2021/05/28 00:00:05;;;;;;;5.50;2.10;;;12.40;94.20;;;;;;5014574;28;20048;-86
2021/05/28 00:02:30;;;;;;;5.35;2.53;;;12.40;94.20;;;;;;5001141;28;20046;-83
2021/05/28 00:04:56;;;;;;;6.28;3.47;;;12.40;94.10;;;;;;5005424;28;20297;-84
2021/05/28 00:07:21;;;;;;;5.22;2.42;;;12.40;94.20;;;;;;5003190;28;20048;-84
2021/05/28 00:09:47;;;;;;;2.97;2.58;;;12.30;94.20;;;;;;5006151;28;20046;-84
2021/05/28 00:12:12;;;;;;;5.47;2.80;;;12.30;94.30;;;;;;5011351;28;20046;-83
2021/05/28 00:14:38;;;;;;;3.95;2.63;;;12.30;94.30;;;;;;5020977;28;20116;-84
2021/05/28 00:17:03;;;;;;;5.50;2.40;;;12.30;94.40;;;;;;5009123;28;20072;-84
2021/05/28 00:19:29;;;;;;;4.20;2.38;;;12.40;94.30;;;;;;5013086;28;20049;-85
2021/05/28 00:21:54;;;;;;;2.95;2.35;;;12.30;94.20;;;;;;5023801;28;20041;-83
2021/05/28 00:24:20;;;;;;;5.97;2.60;;;12.30;94.40;;;;;;5013271;28;20034;-84
2021/05/28 00:26:46;;;;;;;4.03;2.30;;;12.30;94.40;;;;;;5012508;28;20038;-83
2021/05/28 00:29:12;;;;;;;3.08;2.67;;;12.30;94.40;;;;;;5009805;28;20034;-84
2021/05/28 00:31:38;;;;;;;3.15;2.28;;;12.30;94.40;;;;;;5006686;28;20303;-84
2021/05/28 00:34:03;;;;;;;3.50;2.38;;;12.30;94.60;;;;;;5009979;28;20037;-85
2021/05/28 00:36:29;;;;;;;3.03;2.65;;;12.20;94.60;;;;;;5011818;28;20045;-84
2021/05/28 00:38:54;;;;;;;3.53;2.30;;;12.30;94.60;;;;;;5008326;28;20037;-85
2021/05/28 00:41:20;;;;;;;3.95;2.80;;;12.30;94.40;;;;;;5006949;28;20034;-86
2021/05/28 00:43:45;;;;;;;5.55;3.20;;;12.30;94.50;;;;;;5014261;28;20424;-83
2021/05/28 00:46:11;;;;;;;4.80;3.47;;;12.40;94.50;;;;;;5017687;28;20038;-85
2021/05/28 00:48:36;;;;;;;4.35;2.55;;;12.40;94.50;;;;;;5017439;28;20110;-84
2021/05/28 00:51:03;;;;;;;3.30;2.05;;;12.40;94.40;;;;;;5005424;28;20042;-84
2021/05/28 00:53:29;;;;;;;4.32;2.58;;;12.40;94.50;;;;;;5027431;28;20412;-84
2021/05/28 00:55:56;;;;;;;2.63;2.20;;;12.30;94.50;;;;;;5007148;28;20052;-83
2021/05/28 00:58:21;;;;;;;3.15;2.58;;;12.40;94.60;;;;;;5037096;28;20036;-83
2021/05/28 01:00:49;;;;;;;6.20;2.88;;;12.40;94.40;;;;;;5021559;28;20128;-83
2021/05/28 01:03:14;;;;;;;3.08;2.00;;;12.40;94.60;;;;;;5006610;28;20286;-84
2021/05/28 01:05:40;;;;;;;4.63;2.85;;;12.40;94.50;;;;;;5009555;28;20041;-84
2021/05/28 01:08:05;;;;;;;3.58;2.85;;;12.40;94.50;;;;;;5015863;28;20088;-84
2021/05/28 01:10:31;;;;;;;7.47;2.70;;;12.40;94.50;;;;;;5004581;28;20038;-84
2021/05/28 01:13:08;;;;;;;2.70;2.50;;;12.40;94.30;;;;;;5016940;28;20148;-84
2021/05/28 01:15:34;;;;;;;4.82;2.45;;;12.40;94.40;;;;;;5007610;28;20520;-85
2021/05/28 01:18:00;;;;;;;3.70;2.40;;;12.50;94.50;;;;;;5003522;28;20130;-85
2021/05/28 01:20:25;;;;;;;3.22;2.72;;;12.40;94.60;;;;;;5008961;28;20050;-85
2021/05/28 01:22:52;;;;;;;4.95;3.00;;;12.40;94.90;;;;;;5013227;28;20317;-85
2021/05/28 01:25:22;;;;;;;3.17;2.67;;;12.40;94.60;;;;;;5017941;28;20073;-85
2021/05/28 01:27:48;;;;;;;5.93;3.28;;;12.40;94.50;;;;;;5016759;28;20069;-85
2021/05/28 01:30:15;;;;;;;5.35;2.53;;;12.40;94.60;;;;;;5026684;28;20113;-84
2021/05/28 01:32:42;;;;;;;4.15;3.38;;;12.40;94.60;;;;;;5018786;28;20037;-86
2021/05/28 01:35:09;;;;;;;3.70;2.75;;;12.50;94.50;;;;;;5002252;28;20792;-85
2021/05/28 01:37:35;;;;;;;6.03;2.40;;;12.40;94.50;;;;;;5017678;28;20038;-86
2021/05/28 01:40:00;;;;;;;4.70;3.72;;;12.40;94.70;;;;;;5004637;28;20046;-86
2021/05/28 01:42:26;;;;;;;6.20;2.70;;;12.40;94.60;;;;;;5015010;28;20549;-85
2021/05/28 01:44:53;;;;;;;4.47;2.35;;;12.40;94.80;;;;;;5014768;28;20042;-86
2021/05/28 01:47:19;;;;;;;2.67;2.30;;;12.40;94.80;;;;;;5016552;28;20076;-85
2021/05/28 01:49:45;;;;;;;5.00;3.28;;;12.40;94.90;;;;;;5017675;28;20080;-85
2021/05/28 01:52:12;;;;;;;6.55;2.42;;;12.40;94.90;;;;;;5007057;28;20038;-86
2021/05/28 01:54:41;;;;;;;2.63;2.13;;;12.40;95.00;;;;;;5016188;28;20049;-86
2021/05/28 01:57:11;;;;;;;4.20;2.95;;;12.40;94.90;;;;;;5001744;28;20041;-85
2021/05/28 01:59:37;;;;;;;4.65;3.30;;;12.30;95.00;;;;;;5008667;28;20309;-85
2021/05/28 02:02:03;;;;;;;5.43;2.58;;;12.30;95.20;;;;;;5006572;28;20406;-85
2021/05/28 02:04:29;;;;;;;4.63;3.08;;;12.30;95.20;;;;;;5019626;28;20073;-85
2021/05/28 02:06:55;;;;;;;5.97;2.60;;;12.30;95.30;;;;;;5017928;28;20038;-86
2021/05/28 02:09:21;;;;;;;4.13;3.25;;;12.30;95.40;;;;;;5011574;28;20038;-86
2021/05/28 02:11:47;;;;;;;6.32;3.38;;;12.30;95.40;;;;;;5004380;28;20042;-85
2021/05/28 02:14:13;;;;;;;3.25;2.88;;;12.30;95.50;;;;;;5015993;28;20057;-85
2021/05/28 02:16:39;;;;;;;6.60;3.35;;;12.20;95.50;;;;;;5015242;28;20042;-85
2021/05/28 02:19:07;;;;;;;4.53;3.30;;;12.20;95.70;;;;;;5015894;28;20107;-86
2021/05/28 02:21:34;;;;;;;5.80;4.30;;;12.20;95.90;;;;;;5013513;28;20433;-86
2021/05/28 02:23:59;;;;;;;5.95;3.53;;;12.20;96.10;;;;;;5015436;28;20029;-86
2021/05/28 02:26:24;;;;;;;4.53;3.55;;;12.10;96.20;;;;;;5009622;28;20042;-86
2021/05/28 02:28:50;;;;;;;6.75;3.97;;;12.10;96.60;;;;;;5024199;28;20040;-85
2021/05/28 02:31:16;;;;;;;5.00;3.90;;;12.10;96.50;;;;;;5016117;28;20042;-86
2021/05/28 02:33:41;;;;;;;5.70;3.65;;;12.10;96.60;;;;;;5011598;28;20310;-86
2021/05/28 02:36:07;;;;;;;5.13;3.70;;;12.10;96.70;;;;;;5017311;28;20357;-86
2021/05/28 02:38:33;;;;;;;5.45;4.18;;;12.10;96.70;;;;;;5005237;28;20263;-87
2021/05/28 02:40:58;;;;;;;10.52;5.07;;;12.10;96.80;;;;;;5026732;28;20132;-87
2021/05/28 02:43:25;;;;;;;4.72;4.20;;;12.10;97.00;;;;;;5017969;28;20428;-87
2021/05/28 02:45:51;;;;;;;8.10;4.95;;;12.00;97.00;;;;;;5003926;28;20100;-87
2021/05/28 02:48:17;;;;;;;7.90;5.15;;;12.00;97.30;;;;;;4999492;28;20062;-87
2021/05/28 02:50:42;;;;;;;10.60;5.03;;;11.90;97.30;;;;;;5013116;28;20034;-88
2021/05/28 02:53:10;;;;;;;6.40;4.82;;;11.80;97.60;;;;;;5000870;28;20349;-86
2021/05/28 02:55:36;;;;;;;7.13;5.50;;;11.90;97.60;;;;;;5009590;28;20053;-86
2021/05/28 02:58:01;;;;;;;12.65;5.95;;;11.80;97.60;;;;;;5012993;28;20034;-86
2021/05/28 03:00:27;;;;;;;5.95;5.15;;;11.80;97.80;;;;;;5010813;28;20061;-87
2021/05/28 03:02:52;;;;;;;8.50;5.47;;;11.80;98.00;;;;;;5014960;28;20128;-87
2021/05/28 03:05:18;;;;;;;8.05;5.93;;;11.80;98.00;;;;;;5009856;28;20401;-87
2021/05/28 03:07:44;;;;;;;8.85;5.28;;;11.70;98.10;;;;;;4999355;28;20034;-86
2021/05/28 03:10:11;;;;;;;10.55;6.88;;;11.80;98.20;;;;;;5017203;28;20529;-86
2021/05/28 03:12:37;;;;;;;12.82;6.38;;;11.70;98.30;;;;;;5011288;28;20148;-87
2021/05/28 03:15:04;;;;;;;12.88;6.68;;;11.80;98.20;;;;;;5007244;28;20073;-87
2021/05/28 03:17:29;;;;;;;9.40;6.28;;;11.70;98.30;;;;;;5020345;28;20183;-87
2021/05/28 03:19:55;;;;;;;8.80;6.50;;;11.70;98.30;;;;;;5009400;28;20128;-87
2021/05/28 03:22:36;;;;;;;12.85;6.43;;;11.80;98.30;;;;;;5014903;28;20042;-86
2021/05/28 03:25:09;;;;;;;8.93;6.85;;;11.70;98.40;;;;;;5015925;28;20121;-86
2021/05/28 03:27:35;;;;;;;13.90;8.23;;;11.70;98.30;;;;;;5014619;28;20406;-87
2021/05/28 03:30:03;;;;;;;11.60;6.28;;;11.70;98.40;;;;;;5026204;28;20050;-86
2021/05/28 03:32:28;;;;;;;8.07;6.28;;;11.70;98.50;;;;;;5015652;28;20129;-85
2021/05/28 03:34:54;;;;;;;9.23;6.72;;;11.70;98.40;;;;;;5024149;28;20045;-87
2021/05/28 03:37:20;;;;;;;8.85;7.00;;;11.70;98.50;;;;;;5005202;28;20034;-85
2021/05/28 03:39:46;;;;;;;12.80;7.85;;;11.70;98.50;;;;;;5013440;28;20417;-85
2021/05/28 03:42:12;;;;;;;10.45;7.32;;;11.70;98.60;;;;;;5011206;28;20073;-84
2021/05/28 03:44:38;;;;;;;8.00;6.57;;;11.70;98.60;;;;;;5012401;28;20104;-86
2021/05/28 03:47:03;;;;;;;9.52;7.85;;;11.70;98.70;;;;;;5002482;28;20096;-84
2021/05/28 03:49:29;;;;;;;12.35;7.75;;;11.70;98.60;;;;;;5005041;28;20069;-87
2021/05/28 03:51:54;;;;;;;8.85;7.47;;;11.70;98.70;;;;;;4999766;28;20038;-84
2021/05/28 03:54:20;;;;;;;8.45;7.32;;;11.70;98.80;;;;;;5006391;28;20049;-85
2021/05/28 03:56:46;;;;;;;10.38;7.45;;;11.70;98.80;;;;;;5013832;28;20034;-85
2021/05/28 03:59:12;;;;;;;9.57;6.93;;;11.70;98.80;;;;;;5013959;28;20034;-85
2021/05/28 04:01:37;;;;;;;9.23;6.50;;;11.70;98.80;;;;;;5011774;28;20317;-84
2021/05/28 04:04:04;;;;;;;12.00;7.40;;;11.80;98.70;;;;;;5013060;28;20109;-84
2021/05/28 04:06:30;;;;;;;8.55;6.78;;;11.80;98.70;;;;;;5029766;28;20045;-84
2021/05/28 04:08:56;;;;;;;9.05;7.05;;;11.90;98.70;;;;;;5021546;28;20099;-84
2021/05/28 04:11:21;;;;;;;8.63;6.80;;;11.90;98.70;;;;;;5019183;28;20336;-84
2021/05/28 04:13:47;;;;;;;8.13;6.22;;;11.90;98.70;;;;;;5020150;28;20033;-84
2021/05/28 04:16:13;;;;;;;10.07;6.75;;;12.00;98.70;;;;;;5020632;28;20033;-84
2021/05/28 04:18:38;;;;;;;9.52;7.57;;;12.00;98.70;;;;;;5016475;28;20038;-84
2021/05/28 04:21:04;;;;;;;10.68;6.95;;;12.00;98.60;;;;;;5005810;28;20077;-85
2021/05/28 04:23:29;;;;;;;10.55;7.15;;;12.00;98.60;;;;;;5012836;28;20038;-85
2021/05/28 04:25:55;;;;;;;11.77;7.20;;;12.10;98.60;;;;;;5027676;28;20038;-85
2021/05/28 04:28:21;;;;;;;9.57;6.60;;;12.10;98.40;;;;;;5016646;28;20373;-85
2021/05/28 04:30:46;;;;;;;9.57;7.05;;;12.10;98.30;;;;;;5013932;28;20109;-85
2021/05/28 04:33:12;;;;;;;13.40;6.35;;;12.10;98.30;;;;;;5016416;28;20449;-85
2021/05/28 04:35:37;;;;;;;10.77;6.90;;;12.10;98.20;;;;;;5001461;28;20121;-85
2021/05/28 04:38:03;;;;;;;9.02;7.25;;;12.10;98.10;;;;;;5007193;28;20046;-84
2021/05/28 04:40:30;;;;;;;10.68;6.50;;;12.10;98.20;;;;;;5009275;28;20038;-85
2021/05/28 04:42:56;;;;;;;8.18;7.03;;;12.10;98.30;;;;;;5012403;28;20066;-84
2021/05/28 04:45:22;;;;;;;8.05;7.00;;;12.10;98.40;;;;;;5018484;28;20069;-84
2021/05/28 04:47:48;;;;;;;9.77;7.40;;;12.10;98.50;;;;;;5012283;28;20714;-84
2021/05/28 04:50:13;;;;;;;9.30;8.05;;;12.10;98.60;;;;;;5017490;28;20053;-85
2021/05/28 04:52:41;;;;;;;15.13;9.43;;;12.10;98.60;;;;;;5012764;28;20125;-84
2021/05/28 04:55:07;;;;;;;9.73;7.53;;;12.20;98.70;;;;;;5006207;28;20076;-84
2021/05/28 04:57:35;;;;;;;10.38;7.85;;;12.20;98.60;;;;;;5011141;28;20437;-84
2021/05/28 05:00:01;;;;;;;10.00;7.95;;;12.30;98.40;;;;;;5023247;28;20066;-85
2021/05/28 05:02:30;;;;;;;9.98;7.97;;;12.30;98.30;;;;;;5013366;28;20072;-85
2021/05/28 05:04:55;;;;;;;12.52;8.07;;;12.40;98.30;;;;;;5029825;28;20100;-84
2021/05/28 05:07:21;;;;;;;10.68;8.38;;;12.40;98.30;;;;;;5016587;28;20037;-84
2021/05/28 05:09:46;;;;;;;11.05;7.65;;;12.50;98.20;;;;;;5007968;28;20035;-85
2021/05/28 05:12:12;;;;;;;8.90;7.95;;;12.50;98.10;;;;;;5012089;28;20585;-85
2021/05/28 05:14:37;;;;;;;8.65;6.53;;;12.50;97.90;;;;;;5015890;28;20057;-84
2021/05/28 05:17:02;;;;;;;12.93;7.65;;;12.60;97.80;;;;;;5016511;28;20387;-84
2021/05/28 05:19:28;;;;;;;12.27;8.15;;;12.60;97.80;;;;;;5024800;28;20041;-85
2021/05/28 05:21:53;;;;;;;8.48;7.57;;;12.70;97.60;;;;;;5005492;28;20446;-85
2021/05/28 05:24:19;;;;;;;9.77;7.05;;;12.70;97.40;;;;;;5024716;28;20038;-85
2021/05/28 05:26:45;;;;;;;12.45;7.65;;;12.70;97.30;;;;;;5035722;28;20033;-85
2021/05/28 05:29:11;;;;;;;11.07;7.72;;;12.70;97.50;;;;;;5022384;28;20034;-87
2021/05/28 05:31:39;;;;;;;15.23;7.95;;;12.60;97.60;;;;;;5018460;28;20040;-86
2021/05/28 05:34:05;;;;;;;7.40;6.03;;;12.70;97.50;;;;;;5020460;28;20333;-86
2021/05/28 05:36:31;;;;;;;5.88;5.25;;;12.70;97.20;;;;;;5014380;28;20042;-85
2021/05/28 05:38:56;;;;;;;8.07;6.07;;;12.80;97.30;;;;;;5025880;28;20405;-85
2021/05/28 05:41:25;;;;;;;8.93;5.82;;;12.80;97.40;;;;;;5005429;28;20034;-85
2021/05/28 05:43:50;;;;;;;7.60;6.15;;;12.90;96.90;;;;;;5014609;28;20033;-85
2021/05/28 05:46:16;;;;;;;13.18;5.95;;;12.90;96.80;;;;;;5016614;28;20049;-86
2021/05/28 05:48:41;;;;;;;5.57;5.07;;;12.90;96.30;;;;;;5015469;28;20128;-86
2021/05/28 05:51:07;;;;;;;5.10;4.50;;;12.90;96.40;;;;;;5013594;28;20065;-85
2021/05/28 05:53:32;;;;;;;7.63;4.97;;;13.00;96.50;;;;;;5016173;28;20045;-85
2021/05/28 05:55:58;;;;;;;5.95;5.32;;;13.00;96.40;;;;;;5007609;28;20095;-84
2021/05/28 05:58:23;;;;;;;9.27;4.97;;;13.10;96.50;;;;;;5018700;28;20049;-86
2021/05/28 06:00:49;;;;;;;5.25;4.40;;;13.10;96.20;;;;;;5007391;28;20048;-85
2021/05/28 06:03:15;;;;;;;7.47;5.07;;;13.20;95.90;;;;;;4997894;28;20034;-84
2021/05/28 06:05:40;;;;;;;10.98;5.22;;;13.20;96.00;;;;;;5027784;28;20014;-85
2021/05/28 06:08:06;;;;;;;7.10;5.03;;;13.20;95.40;;;;;;5023726;28;20077;-85
2021/05/28 06:10:31;;;;;;;6.55;4.95;;;13.10;95.40;;;;;;5013927;28;20057;-85
2021/05/28 06:13:05;;;;;;;7.75;5.15;;;13.10;95.50;;;;;;4997558;28;20437;-85
2021/05/28 06:15:31;;;;;;;6.05;4.85;;;13.10;96.00;;;;;;5009231;28;20108;-85
2021/05/28 06:17:57;;;;;;;7.93;5.03;;;13.10;95.50;;;;;;5016077;28;20112;-85
2021/05/28 06:20:22;;;;;;;5.97;4.10;;;13.20;95.90;;;;;;5014874;28;20041;-85
2021/05/28 06:22:48;;;;;;;4.35;3.95;;;13.20;95.40;;;;;;5014240;28;20152;-85
2021/05/28 06:25:14;;;;;;;4.28;3.88;;;13.20;95.00;;;;;;5015163;28;20360;-86
2021/05/28 06:27:40;;;;;;;4.97;4.13;;;13.10;94.80;;;;;;5016879;28;20044;-85
2021/05/28 06:30:06;;;;;;;5.78;3.67;;;13.20;95.10;;;;;;5015413;28;20034;-85
2021/05/28 06:32:32;;;;;;;5.40;3.85;;;13.10;94.60;;;;;;5015914;28;20061;-85
2021/05/28 06:34:57;;;;;;;7.07;3.85;;;13.20;94.90;;;;;;5015774;28;20085;-86
2021/05/28 06:37:23;;;;;;;3.80;3.33;;;13.30;94.10;;;;;;5015941;28;20046;-86
2021/05/28 06:39:48;;;;;;;5.07;4.03;;;13.30;94.20;;;;;;5016036;28;20045;-86
2021/05/28 06:42:14;;;;;;;3.28;2.80;;;13.40;93.90;;;;;;5003346;28;20049;-86
2021/05/28 06:44:39;;;;;;;3.90;3.50;;;13.40;94.30;;;;;;5014704;28;20049;-86
2021/05/28 06:47:05;;;;;;;4.95;3.60;;;13.40;93.90;;;;;;5008220;28;20517;-85
2021/05/28 06:49:30;;;;;;;4.90;3.65;;;13.40;93.30;;;;;;4996314;28;20096;-86
2021/05/28 06:51:56;;;;;;;5.28;3.40;;;13.50;93.30;;;;;;4995136;28;20042;-85
2021/05/28 06:54:21;;;;;;;4.60;3.70;;;13.50;93.70;;;;;;4995457;28;20034;-85
2021/05/28 06:56:47;;;;;;;8.68;3.58;;;13.50;93.40;;;;;;4995612;28;20716;-85
2021/05/28 06:59:13;;;;;;;3.05;2.75;;;13.60;93.60;;;;;;4996653;28;20034;-84
2021/05/28 07:01:39;;;;;;;3.40;3.05;;;13.70;93.20;;;;;;5005371;28;20038;-86
2021/05/28 07:04:04;;;;;;;5.80;2.67;;;13.90;93.90;;;;;;4997713;28;20046;-84
2021/05/28 07:06:31;;;;;;;6.70;3.20;;;14.00;92.60;;;;;;4995612;28;20082;-85
2021/05/28 07:08:57;;;;;;;3.53;2.63;;;14.00;92.30;;;;;;4996433;28;20038;-85
2021/05/28 07:11:24;;;;;;;3.97;2.28;;;14.10;92.10;;;;;;5010681;28;20042;-85
2021/05/28 07:13:49;;;;;;;3.53;1.98;;;14.20;91.70;;;;;;5014610;28;20119;-85
2021/05/28 07:16:15;;;;;;;3.95;1.75;;;14.30;92.00;;;;;;5010263;28;20074;-85
2021/05/28 07:18:41;;;;;;;4.65;2.20;;;14.40;90.50;;;;;;5005931;28;20038;-85
2021/05/28 07:21:07;;;;;;;3.10;1.70;;;14.60;91.40;;;;;;4998332;28;20117;-85
2021/05/28 07:23:33;;;;;;;3.80;1.75;;;14.80;91.40;;;;;;5006716;28;20153;-86
2021/05/28 07:26:00;;;;;;;6.47;2.40;;;15.00;90.80;;;;;;5006010;28;20113;-85
2021/05/28 07:28:27;;;;;;;3.47;2.05;;;15.20;90.80;;;;;;5009891;28;20031;-84
2021/05/28 07:30:53;;;;;;;2.00;1.80;;;15.20;89.30;;;;;;5014690;28;20044;-84
2021/05/28 07:33:19;;;;;;;1.88;1.58;;;15.20;87.50;;;;;;5012832;28;20041;-84
2021/05/28 07:35:45;;;;;;;1.73;1.58;;;15.10;88.70;;;;;;5016226;28;20038;-86
2021/05/28 07:38:10;;;;;;;6.20;2.10;;;14.90;88.20;;;;;;5023696;28;20034;-84
2021/05/28 07:40:37;;;;;;;1.77;1.65;;;14.90;87.70;;;;;;5005329;28;20046;-84
2021/05/28 07:43:03;;;;;;;2.75;2.08;;;14.90;88.60;;;;;;5029991;28;20455;-84
2021/05/28 07:45:28;;;;;;;3.13;2.33;;;14.90;90.80;;;;;;5008451;28;20121;-84
2021/05/28 07:47:54;;;;;;;2.15;1.92;;;15.10;90.90;;;;;;5007884;28;20041;-84
2021/05/28 07:50:19;;;;;;;4.50;1.83;;;15.30;89.30;;;;;;5009905;28;20042;-85
2021/05/28 07:52:45;;;;;;;2.33;1.77;;;15.40;86.10;;;;;;4996718;28;20038;-84
2021/05/28 07:55:12;;;;;;;3.50;1.80;;;15.60;84.20;;;;;;5011428;28;20278;-84
2021/05/28 07:57:38;;;;;;;3.30;1.98;;;15.50;84.20;;;;;;4994254;28;20038;-85
2021/05/28 08:00:05;;;;;;;1.75;1.63;;;15.50;84.50;;;;;;5003867;28;20052;-85
2021/05/28 08:02:32;;;;;;;1.55;1.33;;;15.50;85.00;;;;;;5028389;28;20069;-82
2021/05/28 08:04:57;;;;;;;2.25;1.30;;;15.50;83.40;;;;;;5028888;28;20093;-84
2021/05/28 08:07:23;;;;;;;2.50;1.35;;;15.20;84.50;;;;;;5026879;28;20034;-84
2021/05/28 08:09:49;;;;;;;3.85;1.85;;;15.20;86.10;;;;;;5007511;28;20044;-84
2021/05/28 08:12:15;;;;;;;3.65;1.75;;;15.20;85.90;;;;;;5017037;28;20309;-84
2021/05/28 08:14:41;;;;;;;1.65;1.30;;;15.30;86.80;;;;;;5025221;28;20045;-85
2021/05/28 08:17:06;;;;;;;1.73;1.63;;;15.50;85.00;;;;;;4994986;28;20037;-84
2021/05/28 08:19:32;;;;;;;2.25;1.48;;;15.60;83.00;;;;;;4994451;28;20046;-83
2021/05/28 08:21:57;;;;;;;2.10;1.40;;;15.70;86.60;;;;;;4994867;28;20049;-84
2021/05/28 08:24:24;;;;;;;1.75;1.25;;;16.00;84.20;;;;;;4995083;28;20034;-85
2021/05/28 08:26:49;;;;;;;1.45;1.10;;;16.20;81.80;;;;;;5012324;28;20038;-84
2021/05/28 08:29:15;;;;;;;2.95;1.35;;;16.30;79.40;;;;;;5010970;28;20031;-83
2021/05/28 08:31:41;;;;;;;4.05;1.25;;;16.40;78.70;;;;;;5000687;28;20037;-85
2021/05/28 08:34:06;;;;;;;1.38;1.20;;;16.30;80.20;;;;;;4994486;28;20046;-84
2021/05/28 08:36:32;;;;;;;2.08;1.33;;;16.10;80.30;;;;;;5011645;28;20525;-84
2021/05/28 08:38:57;;;;;;;3.40;1.90;;;15.90;82.20;;;;;;4995850;28;20050;-83
2021/05/28 08:41:23;;;;;;;3.38;1.90;;;15.80;81.60;;;;;;5005929;28;20042;-84
2021/05/28 08:43:49;;;;;;;2.25;1.40;;;15.60;81.30;;;;;;5001246;28;20052;-85
2021/05/28 08:46:16;;;;;;;1.88;1.65;;;15.50;80.80;;;;;;5009771;28;20125;-84
2021/05/28 08:48:42;;;;;;;2.50;1.58;;;15.50;82.10;;;;;;4998509;28;20044;-84
2021/05/28 08:51:08;;;;;;;3.33;1.40;;;15.40;82.90;;;;;;5007611;28;20042;-84
2021/05/28 08:53:33;;;;;;;2.65;1.73;;;15.40;82.60;;;;;;4995089;28;20053;-85
2021/05/28 08:55:59;;;;;;;4.75;1.95;;;15.30;83.40;;;;;;4998736;28;20034;-84
2021/05/28 08:58:26;;;;;;;6.72;2.33;;;15.30;83.30;;;;;;4998184;28;20081;-84
2021/05/28 09:00:52;;;;;;;3.65;1.98;;;15.30;83.70;;;;;;4998451;28;20061;-85
2021/05/28 09:03:31;;;;;;;1.75;1.55;;;15.30;84.90;;;;;;5004574;28;20077;-85
2021/05/28 09:06:02;;;;;;;1.77;1.52;;;15.30;84.80;;;;;;5004734;28;20486;-84
2021/05/28 09:08:33;;;;;;;2.40;1.42;;;15.30;83.90;;;;;;5013369;28;20321;-86
2021/05/28 09:11:07;;;;;;;2.00;1.50;;;15.40;81.20;;;;;;5019354;28;20042;-86
2021/05/28 09:13:33;;;;;;;2.72;1.30;;;15.40;82.80;;;;;;5008786;28;20388;-85
2021/05/28 09:16:10;;;;;;;3.17;1.88;;;15.50;83.10;;;;;;5013403;28;20046;-85
2021/05/28 09:18:40;;;;;;;2.95;1.73;;;15.80;81.90;;;;;;4997753;28;20434;-85
2021/05/28 09:21:06;;;;;;;5.00;1.42;;;16.00;81.00;;;;;;4998048;28;20045;-84
2021/05/28 09:23:34;;;;;;;2.78;1.45;;;16.40;79.90;;;;;;4997156;28;20056;-86
2021/05/28 09:26:04;;;;;;;3.13;1.85;;;16.70;79.40;;;;;;5007496;28;20331;-85
2021/05/28 09:28:40;;;;;;;2.25;1.70;;;16.90;79.80;;;;;;5000295;28;20038;-85
2021/05/28 09:31:09;;;;;;;4.32;1.40;;;17.10;78.40;;;;;;4997219;28;20133;-85
2021/05/28 09:33:38;;;;;;;3.08;1.38;;;17.10;74.30;;;;;;4995979;28;20042;-84
2021/05/28 09:36:12;;;;;;;1.98;1.20;;;17.00;74.50;;;;;;4997365;28;20042;-85
2021/05/28 09:38:39;;;;;;;3.45;1.70;;;16.80;75.10;;;;;;5015808;28;20057;-85
2021/05/28 09:41:06;;;;;;;2.72;1.40;;;16.80;75.30;;;;;;5015999;28;20073;-84
2021/05/28 09:43:32;;;;;;;1.75;1.40;;;16.70;76.30;;;;;;5015619;28;20042;-85
2021/05/28 09:45:58;;;;;;;3.28;1.45;;;16.70;76.80;;;;;;5015788;28;20056;-85
2021/05/28 09:48:26;;;;;;;1.92;1.20;;;16.60;75.90;;;;;;5003244;28;20038;-85
2021/05/28 09:50:55;;;;;;;1.60;1.27;;;16.50;76.80;;;;;;5006077;28;20445;-84
2021/05/28 09:53:39;;;;;;;3.20;1.50;;;16.40;75.50;;;;;;5014096;28;20143;-85
2021/05/28 09:56:25;;;;;;;4.47;2.22;;;16.40;76.90;;;;;;4997703;28;20030;-85
2021/05/28 09:59:00;;;;;;;1.52;1.17;;;16.30;76.30;;;;;;4996928;28;20125;-84
2021/05/28 10:01:26;;;;;;;3.42;1.80;;;16.20;77.20;;;;;;4996635;28;20042;-84
2021/05/28 10:04:05;;;;;;;2.15;1.40;;;16.20;78.10;;;;;;4996137;28;20464;-85
2021/05/28 10:06:40;;;;;;;1.33;1.10;;;16.30;79.10;;;;;;4997406;28;20037;-84
2021/05/28 10:09:10;;;;;;;3.35;1.27;;;16.40;78.70;;;;;;5015000;28;20108;-84
2021/05/28 10:11:38;;;;;;;2.20;1.27;;;16.80;76.80;;;;;;5014943;28;20048;-85
2021/05/28 10:14:06;;;;;;;2.47;1.33;;;17.20;74.50;;;;;;5010699;28;20426;-84
2021/05/28 10:16:32;;;;;;;5.45;1.60;;;17.60;73.10;;;;;;5015664;28;20128;-84
2021/05/28 10:18:58;;;;;;;1.67;1.17;;;17.90;73.50;;;;;;5012537;28;20134;-84
2021/05/28 10:21:24;;;;;;;2.75;1.23;;;18.10;73.80;;;;;;4995019;28;20042;-85
2021/05/28 10:23:51;;;;;;;2.20;1.23;;;18.20;71.10;;;;;;4996440;28;20038;-84
2021/05/28 10:26:24;;;;;;;2.17;0.95;;;18.10;70.40;;;;;;5002691;28;20035;-84
2021/05/28 10:28:49;;;;;;;4.70;1.50;;;18.00;70.70;;;;;;5004147;28;20073;-84
2021/05/28 10:31:15;;;;;;;2.22;1.33;;;17.80;69.00;;;;;;4997424;28;20062;-84
2021/05/28 10:33:53;;;;;;;2.25;1.10;;;17.60;69.50;;;;;;4995177;28;20046;-84
2021/05/28 10:36:41;;;;;;;5.30;1.20;;;17.40;70.30;;;;;;4996470;28;20077;-85
2021/05/28 10:39:09;;;;;;;1.95;1.20;;;17.30;70.10;;;;;;5031268;28;20041;-85
2021/05/28 10:41:36;;;;;;;2.40;0.90;;;17.40;73.50;;;;;;5010452;28;20125;-84
2021/05/28 10:44:07;;;;;;;1.30;0.90;;;17.50;75.30;;;;;;5008830;28;20045;-86
2021/05/28 10:46:33;;;;;;;1.40;0.90;;;17.70;68.20;;;;;;5005827;28;20044;-85
2021/05/28 10:48:58;;;;;;;1.52;1.10;;;18.00;72.90;;;;;;5011756;28;20047;-85
2021/05/28 10:51:30;;;;;;;2.42;1.20;;;18.30;70.50;;;;;;4995902;28;20034;-85
2021/05/28 10:53:55;;;;;;;1.70;1.27;;;18.60;65.90;;;;;;5002848;28;20041;-86
2021/05/28 10:56:23;;;;;;;1.50;1.23;;;18.90;66.20;;;;;;5014929;28;20042;-86
2021/05/28 10:58:56;;;;;;;1.80;1.30;;;19.00;66.50;;;;;;5013000;28;20046;-86
2021/05/28 11:01:47;;;;;;;1.83;1.35;;;19.00;67.80;;;;;;4996916;28;20042;-86
2021/05/28 11:04:15;;;;;;;3.25;1.45;;;19.00;68.50;;;;;;5019733;28;20101;-85
2021/05/28 11:06:56;;;;;;;2.15;1.25;;;18.80;66.90;;;;;;5015084;28;20049;-85
2021/05/28 11:09:43;;;;;;;2.45;1.10;;;18.50;66.80;;;;;;5014814;28;20429;-84
2021/05/28 11:12:11;;;;;;;2.83;1.30;;;18.30;67.60;;;;;;4995338;28;20035;-84
2021/05/28 11:14:57;;;;;;;1.98;1.50;;;18.40;68.80;;;;;;5002282;28;20048;-85
2021/05/28 11:17:23;;;;;;;1.20;1.10;;;18.60;66.80;;;;;;5013968;28;20038;-84
2021/05/28 11:19:52;;;;;;;3.13;1.23;;;18.70;64.30;;;;;;5014380;28;20103;-85
2021/05/28 11:22:40;;;;;;;4.82;1.70;;;18.70;65.40;;;;;;5014572;28;20038;-85
2021/05/28 11:25:22;;;;;;;4.45;1.20;;;18.70;64.20;;;;;;5010529;28;20409;-85
2021/05/28 11:27:58;;;;;;;1.70;1.15;;;18.60;66.60;;;;;;5000323;28;20088;-86
2021/05/28 11:30:56;;;;;;;2.05;1.27;;;18.30;67.00;;;;;;5004422;28;20428;-84
2021/05/28 11:33:37;;;;;;;2.47;1.30;;;17.90;67.90;;;;;;5011677;28;20042;-84
2021/05/28 11:36:18;;;;;;;1.77;1.40;;;17.60;67.70;;;;;;5008151;28;20046;-84
2021/05/28 11:38:44;;;;;;;2.72;1.48;;;17.40;68.20;;;;;;5016531;28;20047;-84
2021/05/28 11:41:09;;;;;;;2.42;1.80;;;17.40;72.50;;;;;;5019129;28;20052;-85
2021/05/28 11:43:36;;;;;;;1.90;1.70;;;17.50;73.40;;;;;;5013835;28;20038;-85
2021/05/28 11:46:02;;;;;;;2.97;2.42;;;17.70;71.40;;;;;;5013755;28;20446;-85
2021/05/28 11:48:29;;;;;;;3.05;1.67;;;17.90;71.70;;;;;;5003544;28;20417;-84
2021/05/28 11:50:55;;;;;;;2.42;1.30;;;18.20;70.50;;;;;;5010933;28;20132;-86
2021/05/28 11:53:21;;;;;;;1.95;1.20;;;18.50;66.80;;;;;;4999118;28;20049;-85
2021/05/28 11:55:52;;;;;;;3.17;1.38;;;18.70;66.40;;;;;;5011568;28;20100;-85
2021/05/28 11:58:23;;;;;;;2.00;1.30;;;18.90;64.80;;;;;;5011952;28;20410;-86
2021/05/28 12:00:51;;;;;;;2.40;1.30;;;19.20;64.30;;;;;;4996442;28;20050;-85
2021/05/28 12:03:17;;;;;;;2.92;1.30;;;19.30;62.00;;;;;;4994714;28;20045;-85
2021/05/28 12:05:47;;;;;;;2.25;0.98;;;19.40;62.60;;;;;;4995235;28;20404;-85
2021/05/28 12:08:18;;;;;;;1.35;1.20;;;19.50;63.00;;;;;;4995538;28;20053;-85
2021/05/28 12:10:50;;;;;;;2.88;1.08;;;19.60;63.80;;;;;;4994243;28;20042;-85
2021/05/28 12:13:25;;;;;;;2.58;1.23;;;19.60;59.40;;;;;;4995935;28;20034;-86
2021/05/28 12:15:54;;;;;;;2.92;1.48;;;19.80;61.20;;;;;;4995716;28;20046;-85
2021/05/28 12:18:19;;;;;;;2.10;1.20;;;19.90;60.10;;;;;;4995951;28;20124;-85
2021/05/28 12:20:51;;;;;;;2.38;1.80;;;19.90;62.70;;;;;;4997231;28;20514;-84
2021/05/28 12:23:27;;;;;;;1.80;1.40;;;19.80;61.30;;;;;;4996998;28;20038;-85
2021/05/28 12:25:58;;;;;;;2.67;1.27;;;19.80;60.90;;;;;;4997161;28;20035;-84
2021/05/28 12:28:32;;;;;;;4.10;1.15;;;19.80;61.20;;;;;;5011384;28;20050;-82
2021/05/28 12:31:20;;;;;;;2.05;1.50;;;19.90;62.20;;;;;;5017663;28;20042;-82
2021/05/28 12:33:55;;;;;;;3.53;1.45;;;20.10;62.30;;;;;;5008625;28;20534;-85
2021/05/28 12:36:49;;;;;;;2.65;1.25;;;20.40;59.70;;;;;;5001267;28;20050;-85
2021/05/28 12:39:20;;;;;;;3.08;1.23;;;20.40;60.20;;;;;;5001570;28;20097;-86
2021/05/28 12:41:47;;;;;;;3.28;1.40;;;20.40;60.60;;;;;;5001419;28;20030;-86
2021/05/28 12:44:18;;;;;;;2.47;1.17;;;20.40;58.80;;;;;;5000321;28;20046;-84
2021/05/28 12:46:44;;;;;;;2.72;1.40;;;20.50;59.10;;;;;;5005147;28;20035;-86